Terminal Aerodrome Forecast
Issued by NWS Newport/Morehead City, NC

Home | Current Version | Previous Version | Text Only | Print | Product List | Glossary Off
Versions: 1 2 3 4 5 6 7 8 9 10 11 12 13 14 15 16 17 18 19 20

000
FTUS42 KMHX 200700 AAA
TAFEWN
TAF AMD
KEWN 200706Z 2007/2106 00000KT P6SM OVC001
     FM200900 00000KT 5SM BR BKN003
     FM201300 19005KT P6SM SCT040
     FM210200 18003KT P6SM VCSH SCT025 BKN040=

USA.gov is the U.S. government's official web portal to all federal, state and local government web resources and services.